Time;durP1;ratioP1;P1;durP2;ratioP2;P2;SDS_P1;SDS_P2;PMS_P1;PMS_P2;Temp;Humidity;BMP_temperature;BMP_pressure;BME280_temperature;BME280_humidity;BME280_pressure;Samples;Min_cycle;Max_cycle;Signal;HPM_P1;HPM_P2
2022/09/09 00:02:19;;;;;;;1.10;0.70;;;16.90;99.90;;;;;;5033023;28;20649;-71
2022/09/09 00:05:01;;;;;;;2.37;1.07;;;16.90;99.90;;;;;;5032765;28;20313;-71
2022/09/09 00:07:50;;;;;;;2.23;0.80;;;16.80;99.90;;;;;;5032997;28;20489;-74
2022/09/09 00:10:26;;;;;;;1.57;0.97;;;16.80;99.90;;;;;;5031740;28;20442;-71
2022/09/09 00:13:15;;;;;;;2.23;0.87;;;16.80;99.90;;;;;;5032904;28;20973;-71
2022/09/09 00:15:54;;;;;;;3.40;0.87;;;16.80;99.90;;;;;;5032579;28;20926;-71
2022/09/09 00:18:55;;;;;;;2.23;0.90;;;16.90;99.90;;;;;;5032858;28;20406;-71
2022/09/09 00:21:25;;;;;;;1.43;0.80;;;16.90;99.90;;;;;;5032580;28;20414;-71
2022/09/09 00:23:55;;;;;;;1.73;0.97;;;16.90;99.90;;;;;;5033381;28;20458;-72
2022/09/09 00:26:38;;;;;;;1.27;0.90;;;16.90;99.90;;;;;;5037696;28;20399;-72
2022/09/09 00:29:15;;;;;;;3.30;1.70;;;16.90;99.90;;;;;;5037171;28;20399;-71
2022/09/09 00:31:40;;;;;;;1.30;0.83;;;16.90;99.90;;;;;;5036917;28;20424;-71
2022/09/09 00:34:12;;;;;;;1.77;1.20;;;17.00;99.90;;;;;;5035777;28;20430;-72
2022/09/09 00:36:39;;;;;;;3.03;1.00;;;16.90;99.90;;;;;;5035961;28;20198;-73
2022/09/09 00:39:05;;;;;;;3.40;1.00;;;16.90;99.90;;;;;;5052782;28;20441;-73
2022/09/09 00:42:02;;;;;;;1.30;0.90;;;16.80;99.90;;;;;;5032716;28;20410;-72
2022/09/09 00:44:36;;;;;;;4.60;1.40;;;16.70;99.90;;;;;;5031598;28;20595;-72
2022/09/09 00:47:10;;;;;;;1.40;0.80;;;16.70;99.90;;;;;;5032330;28;20901;-72
2022/09/09 00:49:54;;;;;;;4.37;1.27;;;16.60;99.90;;;;;;5032417;28;20399;-72
2022/09/09 00:52:27;;;;;;;1.30;1.03;;;16.50;99.90;;;;;;5032518;28;20430;-72
2022/09/09 00:55:16;;;;;;;2.07;1.03;;;16.40;99.90;;;;;;5031888;28;20442;-72
2022/09/09 00:57:42;;;;;;;2.23;1.20;;;16.40;99.90;;;;;;5031175;28;20457;-72
2022/09/09 01:00:38;;;;;;;1.57;1.10;;;16.30;99.90;;;;;;5032042;28;20954;-72
2022/09/09 01:03:12;;;;;;;2.07;1.50;;;16.40;99.90;;;;;;5032227;28;20278;-72
2022/09/09 01:06:03;;;;;;;1.67;1.00;;;16.40;99.90;;;;;;5031853;28;20822;-72
2022/09/09 01:09:13;;;;;;;2.47;1.10;;;16.30;99.90;;;;;;5032280;28;20406;-72
2022/09/09 01:12:15;;;;;;;2.30;1.10;;;16.30;99.90;;;;;;5031656;28;20778;-72
2022/09/09 01:14:48;;;;;;;1.30;1.10;;;16.20;99.90;;;;;;5031519;28;20450;-72
2022/09/09 01:17:25;;;;;;;1.97;0.97;;;16.10;99.90;;;;;;5031803;28;20407;-72
2022/09/09 01:20:09;;;;;;;1.40;1.10;;;16.00;99.90;;;;;;5031479;28;20541;-72
2022/09/09 01:22:47;;;;;;;5.63;1.20;;;15.90;99.90;;;;;;5032086;28;20457;-72
2022/09/09 01:25:22;;;;;;;1.30;1.00;;;15.90;99.90;;;;;;5031612;28;20418;-72
2022/09/09 01:27:50;;;;;;;2.07;1.37;;;15.90;99.90;;;;;;5031948;28;20413;-72
2022/09/09 01:30:17;;;;;;;1.20;1.07;;;15.90;99.90;;;;;;5030461;28;20410;-71
2022/09/09 01:32:49;;;;;;;1.67;1.03;;;15.90;99.90;;;;;;5030545;28;20472;-72
2022/09/09 01:35:22;;;;;;;5.10;1.30;;;15.80;99.90;;;;;;5029953;28;20884;-71
2022/09/09 01:37:47;;;;;;;1.40;0.90;;;15.80;99.90;;;;;;5031743;28;20452;-72
2022/09/09 01:40:13;;;;;;;1.57;0.97;;;15.70;99.90;;;;;;5031630;28;20493;-72
2022/09/09 01:42:38;;;;;;;1.70;1.00;;;15.70;99.90;;;;;;5030243;28;20567;-72
2022/09/09 01:45:05;;;;;;;1.50;0.80;;;15.70;99.90;;;;;;5034121;28;20700;-72
2022/09/09 01:47:30;;;;;;;2.60;0.90;;;15.70;99.90;;;;;;5035574;28;20202;-72
2022/09/09 01:49:56;;;;;;;1.20;0.80;;;15.70;99.90;;;;;;5035518;28;20507;-71
2022/09/09 01:52:22;;;;;;;2.27;1.20;;;15.60;99.90;;;;;;5035400;28;20199;-72
2022/09/09 01:54:47;;;;;;;1.37;0.70;;;15.60;99.90;;;;;;5034787;28;20620;-71
2022/09/09 01:57:27;;;;;;;3.07;1.10;;;15.60;99.90;;;;;;5035373;28;20492;-72
2022/09/09 02:00:10;;;;;;;1.30;0.90;;;15.70;99.90;;;;;;5035536;28;20538;-72
2022/09/09 02:03:17;;;;;;;1.20;0.80;;;15.70;99.90;;;;;;5035320;28;20813;-72
2022/09/09 02:05:55;;;;;;;1.40;0.90;;;15.70;99.90;;;;;;5029203;28;20469;-72
2022/09/09 02:08:26;;;;;;;2.57;0.80;;;15.70;99.90;;;;;;5035132;28;20428;-72
2022/09/09 02:11:09;;;;;;;3.70;1.17;;;15.80;99.90;;;;;;5035204;28;20911;-71
2022/09/09 02:13:37;;;;;;;3.93;0.90;;;15.80;99.90;;;;;;5035151;28;20409;-71
2022/09/09 02:16:08;;;;;;;1.50;1.07;;;15.80;99.90;;;;;;5034840;28;20779;-72
2022/09/09 02:18:44;;;;;;;1.50;1.10;;;15.90;99.90;;;;;;5035037;28;20410;-71
2022/09/09 02:21:13;;;;;;;4.87;1.90;;;15.90;99.90;;;;;;5035007;28;20793;-71
2022/09/09 02:23:41;;;;;;;1.33;1.03;;;15.90;99.90;;;;;;5034892;28;20814;-71
2022/09/09 02:26:07;;;;;;;2.20;0.90;;;15.90;99.90;;;;;;5034506;28;20897;-72
2022/09/09 02:28:34;;;;;;;1.10;0.80;;;15.90;99.90;;;;;;5034973;28;20743;-71
2022/09/09 02:31:01;;;;;;;1.93;0.90;;;15.90;99.90;;;;;;5034952;28;20425;-71
2022/09/09 02:33:32;;;;;;;1.87;1.20;;;15.80;99.90;;;;;;5034944;28;20406;-72
2022/09/09 02:36:03;;;;;;;3.77;1.03;;;15.80;99.90;;;;;;5034073;28;20899;-72
2022/09/09 02:38:33;;;;;;;2.13;1.03;;;15.80;99.90;;;;;;5020051;28;20425;-72
2022/09/09 02:40:58;;;;;;;3.53;0.80;;;15.80;99.90;;;;;;5034719;28;20433;-73
2022/09/09 02:43:24;;;;;;;3.20;1.20;;;15.80;99.90;;;;;;5035041;28;20454;-71
2022/09/09 02:46:13;;;;;;;2.87;0.93;;;15.80;99.90;;;;;;5036068;28;20249;-73
2022/09/09 02:48:54;;;;;;;2.70;1.33;;;15.80;99.90;;;;;;5036800;28;20418;-72
2022/09/09 02:51:59;;;;;;;1.10;0.73;;;15.80;99.90;;;;;;5036653;28;20464;-73
2022/09/09 02:54:30;;;;;;;2.53;1.10;;;15.80;99.90;;;;;;5031956;28;20435;-72
2022/09/09 02:57:20;;;;;;;1.30;0.90;;;15.80;99.90;;;;;;5015795;28;20958;-73
2022/09/09 02:59:47;;;;;;;1.30;0.90;;;15.90;99.90;;;;;;5015415;28;20429;-72
2022/09/09 03:02:13;;;;;;;2.43;1.30;;;15.90;99.90;;;;;;5032384;28;20415;-72
2022/09/09 03:04:39;;;;;;;8.97;1.40;;;15.90;99.90;;;;;;5033212;28;20462;-72
2022/09/09 03:07:05;;;;;;;1.43;0.93;;;16.00;99.90;;;;;;5033906;28;20247;-72
2022/09/09 03:09:32;;;;;;;1.20;1.03;;;16.00;99.90;;;;;;5034054;28;20796;-71
2022/09/09 03:11:58;;;;;;;2.70;1.00;;;16.00;99.90;;;;;;5034651;28;20160;-71
2022/09/09 03:14:27;;;;;;;1.10;0.80;;;16.10;99.90;;;;;;5034144;28;20421;-72
2022/09/09 03:16:53;;;;;;;2.90;1.30;;;16.10;99.90;;;;;;5034411;28;20414;-72
2022/09/09 03:19:20;;;;;;;6.73;4.70;;;16.20;99.90;;;;;;5034723;28;20403;-71
2022/09/09 03:21:46;;;;;;;1.80;1.40;;;16.20;99.90;;;;;;5034372;28;20422;-72
2022/09/09 03:24:13;;;;;;;1.70;0.90;;;16.20;99.90;;;;;;5034429;28;20461;-71
2022/09/09 03:26:40;;;;;;;3.47;1.27;;;16.20;99.90;;;;;;5034444;28;20418;-71
2022/09/09 03:29:06;;;;;;;2.33;1.20;;;16.30;99.90;;;;;;5034443;28;20402;-71
2022/09/09 03:31:36;;;;;;;2.37;1.20;;;16.30;99.90;;;;;;5034244;28;20415;-71
2022/09/09 03:34:02;;;;;;;6.50;1.93;;;16.30;99.90;;;;;;5035473;28;20441;-73
2022/09/09 03:36:28;;;;;;;2.90;1.40;;;16.30;99.90;;;;;;5036127;28;20442;-73
2022/09/09 03:38:54;;;;;;;7.97;1.50;;;16.30;99.90;;;;;;5034291;28;20450;-71
2022/09/09 03:41:23;;;;;;;14.27;1.33;;;16.30;99.90;;;;;;5032088;28;20417;-70
2022/09/09 03:43:52;;;;;;;1.80;1.13;;;16.30;99.90;;;;;;5013655;28;20491;-70
2022/09/09 03:46:19;;;;;;;6.60;1.17;;;16.30;99.90;;;;;;5014077;28;20411;-71
2022/09/09 03:48:44;;;;;;;3.37;1.43;;;16.40;99.90;;;;;;5014394;28;20422;-71
2022/09/09 03:51:10;;;;;;;3.00;1.73;;;16.40;99.90;;;;;;5027361;28;20471;-71
2022/09/09 03:53:37;;;;;;;5.03;2.20;;;16.40;99.90;;;;;;5032880;28;20180;-71
2022/09/09 03:56:04;;;;;;;1.30;1.00;;;16.40;99.90;;;;;;5033939;28;20628;-71
2022/09/09 03:58:29;;;;;;;4.37;1.40;;;16.40;99.90;;;;;;5033889;28;20421;-71
2022/09/09 04:01:02;;;;;;;2.63;1.60;;;16.40;99.90;;;;;;5032995;28;20418;-71
2022/09/09 04:03:28;;;;;;;1.97;1.73;;;16.40;99.90;;;;;;5032657;28;20231;-71
2022/09/09 04:05:55;;;;;;;4.17;1.23;;;16.50;99.90;;;;;;5032813;28;20426;-71
2022/09/09 04:08:21;;;;;;;3.23;1.43;;;16.50;99.90;;;;;;5031672;28;20414;-71
2022/09/09 04:10:49;;;;;;;7.00;2.30;;;16.50;99.90;;;;;;5032748;28;20410;-71
2022/09/09 04:13:16;;;;;;;3.30;1.63;;;16.60;99.90;;;;;;5032767;28;20832;-71
2022/09/09 04:15:42;;;;;;;3.60;1.23;;;16.60;99.90;;;;;;5032478;28;20437;-70
2022/09/09 04:18:07;;;;;;;1.40;0.90;;;16.60;99.90;;;;;;5032895;28;20450;-71
2022/09/09 04:20:33;;;;;;;2.87;0.90;;;16.70;99.90;;;;;;5032985;28;20438;-71
2022/09/09 04:22:59;;;;;;;1.83;1.03;;;16.70;99.90;;;;;;5032751;28;20195;-70
2022/09/09 04:25:25;;;;;;;1.93;1.53;;;16.70;99.90;;;;;;5032842;28;20567;-73
2022/09/09 04:27:54;;;;;;;6.33;1.47;;;16.70;99.90;;;;;;5035791;28;20172;-73
2022/09/09 04:30:20;;;;;;;3.23;1.60;;;16.70;99.90;;;;;;5034950;28;20176;-72
2022/09/09 04:32:46;;;;;;;3.00;1.37;;;16.70;99.90;;;;;;5033641;28;20514;-72
2022/09/09 04:35:11;;;;;;;2.27;1.23;;;16.80;99.90;;;;;;5034166;28;20537;-71
2022/09/09 04:37:37;;;;;;;1.40;1.00;;;16.70;99.90;;;;;;5033820;28;20171;-72
2022/09/09 04:40:03;;;;;;;3.37;1.33;;;16.70;99.90;;;;;;5033310;28;20677;-73
2022/09/09 04:42:28;;;;;;;2.13;1.10;;;16.70;99.90;;;;;;5034988;28;20197;-72
2022/09/09 04:44:54;;;;;;;1.40;1.17;;;16.70;99.90;;;;;;5033202;28;20241;-73
2022/09/09 04:47:20;;;;;;;1.90;1.03;;;16.70;99.90;;;;;;5033517;28;20172;-77
2022/09/09 04:49:45;;;;;;;3.20;1.17;;;16.70;99.90;;;;;;5035444;28;20168;-73
2022/09/09 04:52:11;;;;;;;4.20;1.53;;;16.70;99.90;;;;;;5034764;28;20179;-72
2022/09/09 04:54:36;;;;;;;1.60;1.33;;;16.70;99.90;;;;;;5034056;28;20198;-72
2022/09/09 04:57:02;;;;;;;4.67;1.63;;;16.70;99.90;;;;;;5034609;28;20172;-71
2022/09/09 04:59:28;;;;;;;2.53;1.30;;;16.80;99.90;;;;;;5035023;28;20179;-73
2022/09/09 05:01:54;;;;;;;1.70;1.23;;;16.70;99.90;;;;;;5034625;28;20241;-72
2022/09/09 05:04:21;;;;;;;2.93;1.20;;;16.80;99.90;;;;;;5033657;28;20199;-73
2022/09/09 05:06:46;;;;;;;4.20;0.90;;;16.90;99.90;;;;;;5033828;28;20415;-73
2022/09/09 05:09:12;;;;;;;3.83;1.27;;;16.90;99.90;;;;;;5035263;28;20407;-73
2022/09/09 05:11:38;;;;;;;2.43;1.40;;;16.90;99.90;;;;;;5035214;28;20504;-73
2022/09/09 05:14:03;;;;;;;1.43;0.90;;;17.00;99.90;;;;;;5033323;28;20226;-72
2022/09/09 05:16:30;;;;;;;2.03;1.20;;;16.90;99.90;;;;;;5033958;28;20172;-72
2022/09/09 05:18:56;;;;;;;2.90;1.20;;;17.00;99.90;;;;;;5034543;28;20410;-72
2022/09/09 05:21:24;;;;;;;4.43;1.20;;;17.00;99.90;;;;;;5034749;28;20423;-72
2022/09/09 05:23:51;;;;;;;1.90;1.20;;;16.90;99.90;;;;;;5034463;28;20518;-73
2022/09/09 05:26:18;;;;;;;3.07;1.27;;;17.00;99.90;;;;;;5034025;28;20459;-73
2022/09/09 05:28:45;;;;;;;4.30;1.30;;;17.00;99.90;;;;;;5034017;28;20410;-73
2022/09/09 05:31:12;;;;;;;1.60;1.17;;;17.00;99.90;;;;;;5035732;28;20445;-73
2022/09/09 05:33:43;;;;;;;3.00;1.43;;;17.10;99.90;;;;;;5035296;28;20410;-73
2022/09/09 05:36:13;;;;;;;2.67;1.47;;;17.10;99.90;;;;;;5034759;28;20433;-73
2022/09/09 05:38:39;;;;;;;4.47;1.20;;;17.10;99.90;;;;;;5035448;28;20468;-73
2022/09/09 05:41:05;;;;;;;2.00;1.23;;;17.20;99.90;;;;;;5034944;28;20415;-72
2022/09/09 05:43:32;;;;;;;1.90;1.07;;;17.20;99.90;;;;;;5034364;28;21019;-73
2022/09/09 05:46:07;;;;;;;3.00;1.07;;;17.20;99.90;;;;;;5034956;28;20414;-73
2022/09/09 05:48:38;;;;;;;3.03;1.47;;;17.30;99.90;;;;;;5034766;28;20393;-73
2022/09/09 05:51:09;;;;;;;1.90;1.10;;;17.30;99.90;;;;;;5034655;28;20506;-73
2022/09/09 05:53:35;;;;;;;2.63;1.20;;;17.30;99.90;;;;;;5035367;28;20406;-73
2022/09/09 05:56:14;;;;;;;2.80;1.03;;;17.40;99.90;;;;;;5034445;28;20414;-72
2022/09/09 05:58:40;;;;;;;5.10;1.67;;;17.50;99.90;;;;;;5035148;28;20544;-73
2022/09/09 06:01:14;;;;;;;3.03;1.30;;;17.50;99.90;;;;;;5035265;28;20405;-73
2022/09/09 06:03:42;;;;;;;1.97;1.20;;;17.50;99.90;;;;;;5034641;28;20491;-73
2022/09/09 06:06:10;;;;;;;2.53;0.90;;;17.60;99.90;;;;;;5033774;28;20480;-73
2022/09/09 06:08:38;;;;;;;2.13;0.77;;;17.60;99.90;;;;;;5034674;28;20465;-73
2022/09/09 06:11:04;;;;;;;1.10;0.80;;;17.60;99.90;;;;;;5034451;28;20432;-73
2022/09/09 06:13:30;;;;;;;1.93;1.20;;;17.60;99.90;;;;;;5034695;28;20414;-73
2022/09/09 06:15:56;;;;;;;5.10;1.30;;;17.60;99.90;;;;;;5033670;28;20439;-73
2022/09/09 06:18:22;;;;;;;3.03;0.93;;;17.60;99.90;;;;;;5034516;28;20402;-72
2022/09/09 06:20:58;;;;;;;2.50;1.70;;;17.60;99.90;;;;;;5034252;28;20175;-73
2022/09/09 06:23:25;;;;;;;2.70;1.00;;;17.50;99.90;;;;;;5034525;28;20206;-73
2022/09/09 06:25:50;;;;;;;1.13;0.77;;;17.50;99.90;;;;;;5033339;28;20422;-73
2022/09/09 06:28:17;;;;;;;1.77;0.90;;;17.60;99.90;;;;;;5034720;28;20409;-73
2022/09/09 06:30:43;;;;;;;2.33;1.50;;;17.90;99.90;;;;;;5034599;28;20182;-73
2022/09/09 06:33:09;;;;;;;3.20;1.00;;;17.90;99.90;;;;;;5036484;28;20998;-73
2022/09/09 06:35:35;;;;;;;1.27;0.80;;;18.00;99.90;;;;;;5037249;28;20255;-72
2022/09/09 06:38:00;;;;;;;1.97;1.10;;;17.90;99.90;;;;;;5037375;28;20464;-72
2022/09/09 06:40:26;;;;;;;2.57;1.10;;;17.90;99.90;;;;;;5037436;28;20179;-72
2022/09/09 06:42:51;;;;;;;2.20;0.90;;;18.00;99.90;;;;;;5035680;28;20270;-71
2022/09/09 06:45:17;;;;;;;1.67;0.93;;;18.10;99.90;;;;;;5036057;28;20218;-73
2022/09/09 06:47:43;;;;;;;6.20;1.47;;;18.40;99.90;;;;;;5037437;28;20227;-73
2022/09/09 06:50:10;;;;;;;4.13;1.10;;;18.70;99.90;;;;;;5038060;28;20865;-73
2022/09/09 06:52:35;;;;;;;4.10;1.20;;;19.00;99.90;;;;;;5037888;28;20410;-73
2022/09/09 06:55:02;;;;;;;2.10;1.10;;;19.20;99.90;;;;;;5037553;28;20996;-73
2022/09/09 06:57:28;;;;;;;1.50;1.07;;;19.40;99.90;;;;;;5036858;28;20187;-72
2022/09/09 06:59:53;;;;;;;7.10;2.23;;;19.50;99.90;;;;;;5038047;28;20792;-73
2022/09/09 07:02:19;;;;;;;4.10;1.80;;;19.70;99.90;;;;;;5036927;28;20195;-73
2022/09/09 07:04:45;;;;;;;2.70;0.90;;;19.80;99.90;;;;;;5034819;28;20746;-72
2022/09/09 07:07:13;;;;;;;2.17;1.17;;;19.60;99.90;;;;;;5035452;28;20418;-73
2022/09/09 07:09:40;;;;;;;7.37;1.47;;;19.60;99.90;;;;;;5037458;28;20259;-72
2022/09/09 07:12:06;;;;;;;4.33;1.20;;;19.50;99.90;;;;;;5036231;28;20476;-72
2022/09/09 07:14:32;;;;;;;4.40;1.20;;;19.50;99.90;;;;;;5036306;28;20430;-71
2022/09/09 07:16:58;;;;;;;1.70;1.10;;;19.60;99.90;;;;;;5037286;28;20911;-73
2022/09/09 07:19:23;;;;;;;1.20;0.90;;;19.80;99.90;;;;;;5037315;28;20505;-73
2022/09/09 07:21:49;;;;;;;1.83;1.00;;;20.00;99.90;;;;;;5036581;28;20183;-72
2022/09/09 07:24:15;;;;;;;2.13;1.23;;;20.30;99.90;;;;;;5037147;28;20210;-72
2022/09/09 07:26:41;;;;;;;8.73;1.53;;;20.50;99.90;;;;;;5037579;28;20398;-72
2022/09/09 07:29:07;;;;;;;2.40;1.40;;;20.90;99.90;;;;;;5037552;28;20187;-73
2022/09/09 07:31:36;;;;;;;2.83;0.90;;;21.40;99.90;;;;;;5037601;28;20166;-72
2022/09/09 07:34:03;;;;;;;1.90;1.10;;;21.80;99.90;;;;;;5037397;28;20438;-72
2022/09/09 07:36:31;;;;;;;5.50;1.20;;;22.00;99.90;;;;;;5038099;28;20429;-73
2022/09/09 07:38:59;;;;;;;4.23;1.13;;;22.00;99.90;;;;;;5037367;28;20413;-73
2022/09/09 07:41:46;;;;;;;4.50;2.17;;;22.00;99.90;;;;;;5035519;28;20418;-71
2022/09/09 07:44:14;;;;;;;1.80;0.90;;;22.50;99.90;;;;;;5036118;28;20568;-72
2022/09/09 07:46:41;;;;;;;1.43;1.20;;;23.10;99.90;;;;;;5037947;28;20911;-72
2022/09/09 07:49:07;;;;;;;2.57;1.20;;;23.70;99.90;;;;;;5036334;28;20513;-73
2022/09/09 07:51:35;;;;;;;3.33;1.00;;;23.70;99.90;;;;;;5036968;28;20533;-72
2022/09/09 07:54:05;;;;;;;1.60;1.23;;;23.70;99.90;;;;;;5034381;28;20434;-71
2022/09/09 07:56:31;;;;;;;4.40;1.27;;;23.30;99.90;;;;;;5035369;28;20406;-73
2022/09/09 07:59:01;;;;;;;1.63;0.90;;;23.20;99.90;;;;;;5036291;28;20800;-73
2022/09/09 08:01:29;;;;;;;2.30;1.20;;;23.10;99.90;;;;;;5034016;28;20479;-72
2022/09/09 08:04:04;;;;;;;2.53;1.00;;;22.90;99.90;;;;;;5035031;28;20458;-72
2022/09/09 08:06:34;;;;;;;1.77;0.83;;;22.70;99.90;;;;;;5036724;28;20413;-73
2022/09/09 08:08:59;;;;;;;3.13;0.93;;;22.50;99.90;;;;;;5037277;28;20606;-73
2022/09/09 08:11:27;;;;;;;3.77;0.83;;;22.60;99.90;;;;;;5037123;28;20403;-72
2022/09/09 08:13:53;;;;;;;3.80;1.17;;;22.80;99.90;;;;;;5036728;28;20639;-73
2022/09/09 08:16:21;;;;;;;3.40;0.97;;;22.70;99.90;;;;;;5036122;28;20421;-73
2022/09/09 08:18:49;;;;;;;1.60;1.10;;;22.50;99.90;;;;;;5037494;28;20644;-73
2022/09/09 08:21:17;;;;;;;1.87;1.00;;;22.90;99.90;;;;;;5036131;28;20889;-72
2022/09/09 08:23:45;;;;;;;3.80;1.20;;;23.00;99.90;;;;;;5035039;28;20450;-72
2022/09/09 08:26:16;;;;;;;2.40;1.40;;;22.80;99.90;;;;;;5036324;28;20446;-72
2022/09/09 08:28:43;;;;;;;2.43;1.37;;;22.70;99.90;;;;;;5036888;28;20422;-73
2022/09/09 08:31:14;;;;;;;2.00;1.13;;;22.60;99.90;;;;;;5035167;28;20781;-72
2022/09/09 08:33:41;;;;;;;6.77;1.80;;;22.70;99.90;;;;;;5036596;28;21006;-72
2022/09/09 08:36:10;;;;;;;2.90;1.00;;;22.90;99.90;;;;;;5035748;28;20414;-72
2022/09/09 08:38:37;;;;;;;2.33;1.00;;;23.20;99.90;;;;;;5036218;28;20438;-70
2022/09/09 08:41:32;;;;;;;2.50;1.13;;;23.10;99.90;;;;;;5035511;28;20496;-73
2022/09/09 08:44:28;;;;;;;1.90;1.10;;;22.70;99.90;;;;;;5035381;28;20478;-73
2022/09/09 08:47:11;;;;;;;2.33;1.27;;;23.10;99.10;;;;;;5035692;28;20537;-72
2022/09/09 08:49:53;;;;;;;1.40;0.97;;;25.10;94.80;;;;;;5035110;28;21029;-70
2022/09/09 08:52:21;;;;;;;3.53;1.33;;;26.40;84.00;;;;;;5034282;28;20414;-71
2022/09/09 08:54:47;;;;;;;1.40;0.90;;;26.60;73.70;;;;;;5034241;28;20809;-70
2022/09/09 08:57:26;;;;;;;1.80;1.17;;;26.40;70.60;;;;;;5035010;28;20434;-73
2022/09/09 08:59:55;;;;;;;1.40;1.00;;;25.90;69.70;;;;;;5036145;28;20168;-72
2022/09/09 09:02:32;;;;;;;1.20;0.80;;;25.30;70.70;;;;;;5035938;28;20448;-73
2022/09/09 09:05:20;;;;;;;1.20;0.83;;;24.90;73.60;;;;;;5035431;28;20438;-72
2022/09/09 09:07:51;;;;;;;1.97;1.20;;;24.90;73.70;;;;;;5035350;28;21032;-73
2022/09/09 09:10:47;;;;;;;2.00;1.20;;;24.90;74.80;;;;;;5036388;28;20477;-72
2022/09/09 09:13:20;;;;;;;1.57;1.00;;;24.50;74.20;;;;;;5035112;28;20919;-72
2022/09/09 09:15:52;;;;;;;1.30;1.00;;;24.20;79.70;;;;;;5035880;28;20421;-72
2022/09/09 09:18:17;;;;;;;2.60;0.83;;;23.70;81.90;;;;;;5036040;28;20410;-73
2022/09/09 09:20:54;;;;;;;1.30;0.70;;;23.20;82.80;;;;;;5033378;28;20493;-73
2022/09/09 09:23:27;;;;;;;3.40;0.97;;;22.80;89.20;;;;;;5033609;28;20199;-72
2022/09/09 09:25:59;;;;;;;7.57;1.30;;;22.50;92.90;;;;;;5034046;28;20433;-73
2022/09/09 09:28:29;;;;;;;1.70;1.10;;;22.40;94.70;;;;;;5036456;28;20918;-73
2022/09/09 09:31:09;;;;;;;2.53;1.47;;;22.30;98.70;;;;;;5035472;28;20416;-73
2022/09/09 09:33:48;;;;;;;2.60;0.97;;;21.90;99.90;;;;;;5035892;28;20445;-72
2022/09/09 09:36:15;;;;;;;1.23;1.10;;;21.70;99.90;;;;;;5036136;28;20906;-72
2022/09/09 09:39:02;;;;;;;2.70;0.97;;;21.50;99.90;;;;;;5035196;28;20437;-72
2022/09/09 09:41:39;;;;;;;1.43;0.90;;;21.50;99.90;;;;;;5035649;28;20458;-73
2022/09/09 09:44:19;;;;;;;2.47;1.07;;;21.50;99.90;;;;;;5036057;28;20453;-72
2022/09/09 09:46:45;;;;;;;2.07;1.20;;;21.60;99.90;;;;;;5035193;28;20989;-73
2022/09/09 09:49:10;;;;;;;3.10;1.00;;;21.70;99.90;;;;;;5035152;28;20445;-73
2022/09/09 09:51:36;;;;;;;2.43;1.00;;;21.80;99.90;;;;;;5033977;28;20267;-73
2022/09/09 09:54:33;;;;;;;1.70;0.90;;;21.80;99.90;;;;;;5035703;28;20210;-73
2022/09/09 09:57:14;;;;;;;4.80;0.93;;;22.00;99.90;;;;;;5033703;28;20544;-72
2022/09/09 09:59:40;;;;;;;1.30;0.90;;;22.30;99.90;;;;;;5034586;28;20424;-73
2022/09/09 10:02:19;;;;;;;1.40;0.90;;;22.50;99.90;;;;;;5035587;28;20406;-73
2022/09/09 10:04:45;;;;;;;3.27;0.97;;;22.60;99.90;;;;;;5036061;28;20485;-73
2022/09/09 10:07:22;;;;;;;2.20;0.70;;;22.90;99.90;;;;;;5038208;28;20418;-73
2022/09/09 10:09:56;;;;;;;1.10;0.80;;;23.30;99.90;;;;;;5037307;28;21040;-72
2022/09/09 10:12:45;;;;;;;4.47;1.37;;;23.50;99.90;;;;;;5036624;28;20414;-73
2022/09/09 10:15:28;;;;;;;1.30;0.80;;;23.70;99.70;;;;;;5036861;28;20477;-74
2022/09/09 10:18:13;;;;;;;2.93;1.03;;;24.00;96.40;;;;;;5035857;28;20406;-73
2022/09/09 10:20:46;;;;;;;3.63;1.70;;;24.10;96.00;;;;;;5036980;28;20414;-73
2022/09/09 10:23:14;;;;;;;1.77;1.20;;;24.10;97.30;;;;;;5038574;28;20955;-71
2022/09/09 10:26:03;;;;;;;2.23;0.90;;;23.70;94.80;;;;;;5018136;28;20442;-73
2022/09/09 10:28:47;;;;;;;4.80;1.00;;;23.20;97.20;;;;;;5031358;28;20410;-72
2022/09/09 10:31:27;;;;;;;1.60;0.90;;;23.00;98.30;;;;;;5017610;28;20399;-73
2022/09/09 10:34:06;;;;;;;4.30;1.17;;;22.70;99.90;;;;;;5018289;28;20747;-72
2022/09/09 10:36:31;;;;;;;3.43;0.90;;;22.30;99.90;;;;;;5025534;28;20785;-72
2022/09/09 10:39:05;;;;;;;1.77;0.90;;;22.70;99.90;;;;;;5039059;28;20433;-72
2022/09/09 10:41:40;;;;;;;6.43;3.87;;;24.30;99.90;;;;;;5034473;28;20180;-71
2022/09/09 10:44:38;;;;;;;1.63;0.90;;;25.00;92.40;;;;;;5033923;28;20536;-71
2022/09/09 10:47:24;;;;;;;3.10;0.80;;;24.70;92.00;;;;;;5033036;28;20411;-71
2022/09/09 10:50:16;;;;;;;2.30;0.70;;;25.10;92.00;;;;;;5034178;28;20422;-71
2022/09/09 10:53:19;;;;;;;1.50;0.73;;;26.50;83.70;;;;;;5033888;28;20454;-70
2022/09/09 10:55:53;;;;;;;1.70;1.20;;;28.20;71.80;;;;;;5035573;28;20428;-72
2022/09/09 10:58:25;;;;;;;2.50;1.03;;;28.80;66.20;;;;;;5038000;28;20398;-71
2022/09/09 11:00:55;;;;;;;2.70;1.37;;;28.60;63.80;;;;;;5038633;28;20394;-71
2022/09/09 11:03:29;;;;;;;2.00;1.03;;;28.10;63.20;;;;;;5037860;28;20489;-71
2022/09/09 11:06:05;;;;;;;2.20;1.03;;;27.50;63.70;;;;;;5037186;28;20931;-71
2022/09/09 11:08:35;;;;;;;1.27;0.80;;;26.80;67.40;;;;;;5034814;28;20397;-70
2022/09/09 11:11:26;;;;;;;1.50;1.10;;;26.20;65.10;;;;;;5033560;28;20399;-69
2022/09/09 11:13:54;;;;;;;3.67;1.10;;;25.30;72.40;;;;;;5030413;28;20429;-70
2022/09/09 11:16:31;;;;;;;1.57;1.00;;;24.50;76.70;;;;;;5032285;28;20407;-70
2022/09/09 11:19:09;;;;;;;2.70;0.90;;;23.80;80.40;;;;;;5029935;28;20448;-70
2022/09/09 11:21:42;;;;;;;3.77;0.90;;;23.20;89.90;;;;;;5031313;28;20414;-70
2022/09/09 11:24:17;;;;;;;1.70;0.90;;;23.00;91.80;;;;;;5033411;28;20461;-70
2022/09/09 11:26:57;;;;;;;1.77;1.13;;;23.10;94.50;;;;;;5033646;28;20427;-71
2022/09/09 11:29:44;;;;;;;1.20;0.70;;;23.20;96.30;;;;;;5033627;28;20410;-69
2022/09/09 11:32:19;;;;;;;3.40;0.80;;;22.80;94.30;;;;;;5033346;28;20415;-72
2022/09/09 11:35:09;;;;;;;3.83;1.00;;;22.50;96.40;;;;;;5031971;28;20437;-71
2022/09/09 11:38:07;;;;;;;1.33;0.90;;;22.30;97.00;;;;;;5013777;28;20443;-72
2022/09/09 11:40:33;;;;;;;1.40;0.70;;;22.30;99.90;;;;;;5013664;28;20417;-72
2022/09/09 11:43:08;;;;;;;1.33;1.00;;;22.20;99.90;;;;;;5013566;28;20473;-70
2022/09/09 11:45:35;;;;;;;2.43;0.90;;;22.20;99.90;;;;;;5014297;28;20422;-72
2022/09/09 11:48:02;;;;;;;1.97;0.70;;;22.10;99.90;;;;;;5033101;28;20472;-71
2022/09/09 11:50:34;;;;;;;2.17;0.90;;;21.90;99.90;;;;;;5033103;28;20450;-71
2022/09/09 11:53:15;;;;;;;1.30;0.80;;;21.80;99.90;;;;;;5033216;28;20460;-70
2022/09/09 11:55:40;;;;;;;1.20;1.00;;;21.70;99.90;;;;;;5032962;28;20446;-71
2022/09/09 11:58:09;;;;;;;2.83;0.80;;;21.70;99.90;;;;;;5033268;28;20998;-71
2022/09/09 12:00:43;;;;;;;2.00;1.00;;;21.70;99.90;;;;;;5032706;28;20172;-71
2022/09/09 12:03:35;;;;;;;2.73;0.73;;;21.60;99.90;;;;;;5032788;28;20894;-71
2022/09/09 12:06:19;;;;;;;2.63;1.10;;;21.50;99.90;;;;;;5033346;28;20402;-71
2022/09/09 12:08:52;;;;;;;1.50;1.30;;;21.40;99.90;;;;;;5033668;28;20545;-71
2022/09/09 12:11:30;;;;;;;3.50;1.10;;;21.40;99.90;;;;;;5033609;28;20426;-71
2022/09/09 12:13:59;;;;;;;2.50;0.83;;;21.50;99.90;;;;;;5033211;28;20869;-71
2022/09/09 12:16:34;;;;;;;1.57;1.13;;;21.60;99.90;;;;;;5032638;28;20410;-71
2022/09/09 12:19:15;;;;;;;2.40;0.80;;;21.80;99.90;;;;;;5032248;28;20426;-71
2022/09/09 12:21:47;;;;;;;2.93;0.90;;;21.90;99.90;;;;;;5032489;28;20978;-70
2022/09/09 12:24:36;;;;;;;1.40;0.90;;;21.90;99.90;;;;;;5032110;28;20465;-71
2022/09/09 12:27:14;;;;;;;2.83;1.03;;;21.80;99.90;;;;;;5031510;28;20788;-71
2022/09/09 12:30:10;;;;;;;2.37;1.17;;;21.60;99.90;;;;;;5032472;28;20418;-71
2022/09/09 12:32:37;;;;;;;5.47;0.83;;;21.60;99.90;;;;;;5031231;28;20410;-70
2022/09/09 12:35:11;;;;;;;3.77;1.77;;;21.30;99.90;;;;;;5030770;28;20985;-70
2022/09/09 12:37:56;;;;;;;4.70;1.30;;;21.10;99.90;;;;;;5032176;28;20402;-71
2022/09/09 12:40:23;;;;;;;1.50;0.97;;;20.80;99.90;;;;;;5031661;28;20790;-70
2022/09/09 12:42:50;;;;;;;7.20;1.07;;;20.50;99.90;;;;;;5031966;28;20405;-71
2022/09/09 12:45:21;;;;;;;8.70;1.40;;;20.50;99.90;;;;;;5031873;28;20434;-70
2022/09/09 12:47:57;;;;;;;1.60;1.40;;;22.00;99.90;;;;;;5032532;28;20398;-71
2022/09/09 12:50:36;;;;;;;2.37;1.20;;;24.80;99.90;;;;;;5032268;28;20475;-71
2022/09/09 12:53:09;;;;;;;1.70;1.20;;;27.60;99.90;;;;;;5032450;28;20403;-73
2022/09/09 12:55:38;;;;;;;3.53;1.30;;;29.80;99.90;;;;;;5032349;28;20438;-72
2022/09/09 12:58:05;;;;;;;3.40;0.87;;;31.70;93.20;;;;;;5033251;28;20414;-72
2022/09/09 13:00:32;;;;;;;2.33;1.07;;;32.90;75.10;;;;;;5033012;28;20433;-72
2022/09/09 13:03:20;;;;;;;2.70;1.10;;;33.10;66.20;;;;;;5033144;28;20406;-72
2022/09/09 13:05:46;;;;;;;2.17;1.00;;;33.20;61.90;;;;;;5032641;28;20434;-72
2022/09/09 13:08:14;;;;;;;2.57;1.07;;;32.20;58.20;;;;;;5032070;28;20488;-72
2022/09/09 13:11:02;;;;;;;1.60;1.00;;;30.70;61.50;;;;;;5031693;28;20493;-71
2022/09/09 13:13:38;;;;;;;2.17;1.50;;;28.90;64.60;;;;;;5030579;28;20421;-71
2022/09/09 13:16:08;;;;;;;1.57;1.10;;;27.60;76.20;;;;;;5031807;28;20460;-71